createdAt,value
2018-06-22T00:00:51.350Z,1007.16
2018-06-22T00:01:52.733Z,1007.15
2018-06-22T00:02:54.120Z,1007.20
2018-06-22T00:03:55.510Z,1007.15
2018-06-22T00:04:56.914Z,1007.17
2018-06-22T00:05:58.284Z,1007.16
2018-06-22T00:06:59.677Z,1007.14
2018-06-22T00:08:01.054Z,1007.15
2018-06-22T00:09:02.440Z,1007.14
2018-06-22T00:10:03.834Z,1007.14
2018-06-22T00:11:06.151Z,1007.12
2018-06-22T00:12:07.533Z,1007.12
2018-06-22T00:13:08.918Z,1007.09
2018-06-22T00:14:10.294Z,1007.09
2018-06-22T00:15:11.681Z,1007.07
2018-06-22T00:16:13.069Z,1007.02
2018-06-22T00:17:14.454Z,1007.09
2018-06-22T00:18:15.854Z,1007.11
2018-06-22T00:19:18.043Z,1007.08
2018-06-22T00:20:19.433Z,1007.12
2018-06-22T00:21:20.807Z,1007.01
2018-06-22T00:22:22.186Z,1007.01
2018-06-22T00:23:23.582Z,1007.03
2018-06-22T00:24:25.890Z,1006.99
2018-06-22T00:25:27.274Z,1006.95
2018-06-22T00:26:28.650Z,1006.99
2018-06-22T00:27:30.036Z,1006.97
2018-06-22T00:28:31.428Z,1007.01
2018-06-22T00:29:32.820Z,1007.01
2018-06-22T00:30:34.200Z,1006.97
2018-06-22T00:31:35.578Z,1006.96
2018-06-22T00:32:36.954Z,1006.96
2018-06-22T00:33:38.340Z,1006.92
2018-06-22T00:34:39.721Z,1006.95
2018-06-22T00:35:41.110Z,1006.99
2018-06-22T00:36:42.501Z,1006.92
2018-06-22T00:37:43.888Z,1006.93
2018-06-22T00:38:45.274Z,1006.91
2018-06-22T00:39:46.665Z,1006.94
2018-06-22T00:40:48.050Z,1006.93
2018-06-22T00:41:49.440Z,1006.98
2018-06-22T00:42:50.821Z,1006.89
2018-06-22T00:43:52.195Z,1006.94
2018-06-22T00:44:53.577Z,1006.90
2018-06-22T00:45:54.964Z,1006.91
2018-06-22T00:46:56.339Z,1006.91
2018-06-22T00:47:57.724Z,1006.88
2018-06-22T00:48:59.115Z,1006.88
2018-06-22T00:50:00.493Z,1006.92
2018-06-22T00:51:02.774Z,1006.93
2018-06-22T00:52:04.153Z,1006.96
2018-06-22T00:53:05.530Z,1006.91
2018-06-22T00:54:06.923Z,1006.92
2018-06-22T00:55:08.297Z,1006.98
2018-06-22T00:56:09.680Z,1006.91
2018-06-22T00:57:11.063Z,1006.88
2018-06-22T00:58:12.446Z,1006.85
2018-06-22T00:59:13.842Z,1006.89
2018-06-22T01:00:15.210Z,1006.89
2018-06-22T01:01:16.601Z,1006.89
2018-06-22T01:02:17.981Z,1006.90
2018-06-22T01:03:19.380Z,1006.92
2018-06-22T01:04:20.751Z,1006.83
2018-06-22T01:05:22.137Z,1006.89
2018-06-22T01:06:23.519Z,1006.84
2018-06-22T01:07:24.907Z,1006.88
2018-06-22T01:08:26.281Z,1006.84
2018-06-22T01:09:27.668Z,1006.81
2018-06-22T01:10:29.049Z,1006.84
2018-06-22T01:11:30.429Z,1006.85
2018-06-22T01:12:31.820Z,1006.83
2018-06-22T01:13:34.152Z,1006.81
2018-06-22T01:14:35.532Z,1006.84
2018-06-22T01:15:36.913Z,1006.86
2018-06-22T01:16:38.299Z,1006.91
2018-06-22T01:17:39.685Z,1006.85
2018-06-22T01:18:41.063Z,1006.84
2018-06-22T01:19:43.100Z,1006.88
2018-06-22T01:20:44.485Z,1006.79
2018-06-22T01:21:45.856Z,1006.84
2018-06-22T01:22:47.240Z,1006.87
2018-06-22T01:23:48.616Z,1006.83
2018-06-22T01:24:50.014Z,1006.83
2018-06-22T01:25:51.392Z,1006.81
2018-06-22T01:26:52.764Z,1006.80
2018-06-22T01:27:54.152Z,1006.83
2018-06-22T01:28:55.528Z,1006.81
2018-06-22T01:29:56.918Z,1006.86
2018-06-22T01:30:58.306Z,1006.87
2018-06-22T01:31:59.682Z,1006.81
2018-06-22T01:33:01.092Z,1006.87
2018-06-22T01:34:02.482Z,1006.90
2018-06-22T01:35:03.856Z,1006.89
2018-06-22T01:36:05.228Z,1006.92
2018-06-22T01:37:06.624Z,1006.89
2018-06-22T01:38:08.037Z,1006.90
2018-06-22T01:39:09.418Z,1006.88
2018-06-22T01:40:10.790Z,1006.90
2018-06-22T01:41:12.195Z,1006.88
2018-06-22T01:42:13.581Z,1006.92
2018-06-22T01:43:14.978Z,1006.93
2018-06-22T01:44:16.357Z,1006.93
2018-06-22T01:45:17.753Z,1006.93
2018-06-22T01:46:19.133Z,1006.98
2018-06-22T01:47:20.538Z,1006.97
2018-06-22T01:48:21.909Z,1006.95
2018-06-22T01:49:23.286Z,1006.91
2018-06-22T01:50:25.535Z,1006.96
2018-06-22T01:51:26.938Z,1006.89
2018-06-22T01:52:28.315Z,1006.95
2018-06-22T01:53:29.689Z,1006.93
2018-06-22T01:54:31.094Z,1006.93
2018-06-22T01:55:32.460Z,1006.91
2018-06-22T01:56:33.862Z,1006.96
2018-06-22T01:57:35.244Z,1006.94
2018-06-22T01:58:36.627Z,1006.88
2018-06-22T01:59:38.022Z,1006.87
2018-06-22T02:00:39.398Z,1006.91
2018-06-22T02:01:40.785Z,1006.88
2018-06-22T02:02:42.173Z,1006.88
2018-06-22T02:03:43.551Z,1006.87
2018-06-22T02:04:44.931Z,1006.88
2018-06-22T02:05:46.367Z,1006.88
2018-06-22T02:06:47.685Z,1006.85
2018-06-22T02:07:49.092Z,1006.84
2018-06-22T02:08:50.471Z,1006.84
2018-06-22T02:09:51.854Z,1006.86
2018-06-22T02:10:53.227Z,1006.87
2018-06-22T02:11:54.611Z,1006.82
2018-06-22T02:12:55.991Z,1006.84
2018-06-22T02:13:57.380Z,1006.77
2018-06-22T02:14:58.765Z,1006.84
2018-06-22T02:16:00.145Z,1006.75
2018-06-22T02:17:01.545Z,1006.77
2018-06-22T02:18:02.920Z,1006.77
2018-06-22T02:19:04.306Z,1006.75
2018-06-22T02:20:05.689Z,1006.75
2018-06-22T02:21:07.076Z,1006.75
2018-06-22T02:22:08.458Z,1006.75
2018-06-22T02:23:09.832Z,1006.76
2018-06-22T02:24:11.218Z,1006.78
2018-06-22T02:25:12.594Z,1006.79
2018-06-22T02:26:13.972Z,1006.78
2018-06-22T02:27:15.361Z,1006.79
2018-06-22T02:28:16.741Z,1006.80
2018-06-22T02:29:18.136Z,1006.84
2018-06-22T02:30:19.520Z,1006.78
2018-06-22T02:31:20.911Z,1006.79
2018-06-22T02:32:23.047Z,1006.72
2018-06-22T02:33:24.425Z,1006.79
2018-06-22T02:34:25.823Z,1006.76
2018-06-22T02:35:27.193Z,1006.78
2018-06-22T02:36:28.576Z,1006.81
2018-06-22T02:37:29.971Z,1006.77
2018-06-22T02:38:31.341Z,1006.76
2018-06-22T02:39:32.729Z,1006.78
2018-06-22T02:40:34.120Z,1006.75
2018-06-22T02:41:35.499Z,1006.78
2018-06-22T02:42:36.884Z,1006.80
2018-06-22T02:43:38.264Z,1006.75
2018-06-22T02:44:39.645Z,1006.78
2018-06-22T02:45:41.024Z,1006.78
2018-06-22T02:46:42.410Z,1006.82
2018-06-22T02:47:43.789Z,1006.84
2018-06-22T02:48:45.172Z,1006.76
2018-06-22T02:49:46.556Z,1006.76
2018-06-22T02:50:47.933Z,1006.79
2018-06-22T02:51:49.312Z,1006.76
2018-06-22T02:52:50.690Z,1006.78
2018-06-22T02:53:52.085Z,1006.76
2018-06-22T02:54:53.475Z,1006.75
2018-06-22T02:55:54.862Z,1006.74
2018-06-22T02:56:56.235Z,1006.73
2018-06-22T02:57:57.618Z,1006.75
2018-06-22T02:58:58.988Z,1006.75
2018-06-22T03:00:00.365Z,1006.74
2018-06-22T03:01:01.745Z,1006.73
2018-06-22T03:02:03.125Z,1006.73
2018-06-22T03:03:04.510Z,1006.76
2018-06-22T03:04:05.895Z,1006.74
2018-06-22T03:05:07.273Z,1006.69
2018-06-22T03:06:08.675Z,1006.68
2018-06-22T03:07:10.045Z,1006.68
2018-06-22T03:08:11.431Z,1006.69
2018-06-22T03:09:12.805Z,1006.70
2018-06-22T03:10:14.195Z,1006.70
2018-06-22T03:11:15.576Z,1006.68
2018-06-22T03:12:17.741Z,1006.69
2018-06-22T03:13:19.125Z,1006.63
2018-06-22T03:14:20.512Z,1006.67
2018-06-22T03:15:21.899Z,1006.67
2018-06-22T03:16:23.281Z,1006.66
2018-06-22T03:17:24.662Z,1006.68
2018-06-22T03:18:26.042Z,1006.66
2018-06-22T03:19:27.414Z,1006.65
2018-06-22T03:20:28.808Z,1006.68
2018-06-22T03:21:30.188Z,1006.68
2018-06-22T03:22:31.574Z,1006.68
2018-06-22T03:23:32.960Z,1006.68
2018-06-22T03:24:34.342Z,1006.71
2018-06-22T03:25:35.744Z,1006.72
2018-06-22T03:26:37.128Z,1006.70
2018-06-22T03:27:38.512Z,1006.66
2018-06-22T03:28:39.890Z,1006.69
2018-06-22T03:29:41.276Z,1006.71
2018-06-22T03:30:42.657Z,1006.73
2018-06-22T03:31:44.040Z,1006.72
2018-06-22T03:32:45.436Z,1006.72
2018-06-22T03:33:46.825Z,1006.71
2018-06-22T03:34:48.219Z,1006.73
2018-06-22T03:35:49.593Z,1006.68
2018-06-22T03:36:50.978Z,1006.68
2018-06-22T03:37:52.370Z,1006.69
2018-06-22T03:38:53.752Z,1006.71
2018-06-22T03:39:55.136Z,1006.74
2018-06-22T03:40:56.515Z,1006.70
2018-06-22T03:41:57.890Z,1006.77
2018-06-22T03:42:59.297Z,1006.74
2018-06-22T03:44:00.671Z,1006.71
2018-06-22T03:45:02.067Z,1006.75
2018-06-22T03:46:03.436Z,1006.74
2018-06-22T03:47:04.827Z,1006.75
2018-06-22T03:48:06.213Z,1006.70
2018-06-22T03:49:07.599Z,1006.74
2018-06-22T03:50:08.982Z,1006.76
2018-06-22T03:51:10.363Z,1006.73
2018-06-22T03:52:11.746Z,1006.72
2018-06-22T03:53:13.140Z,1006.70
2018-06-22T03:54:14.532Z,1006.72
2018-06-22T03:55:15.898Z,1006.71
2018-06-22T03:56:17.282Z,1006.72
2018-06-22T03:57:18.670Z,1006.73
2018-06-22T03:58:20.049Z,1006.72
2018-06-22T03:59:21.439Z,1006.69
2018-06-22T04:00:22.826Z,1006.70
2018-06-22T04:01:24.211Z,1006.67
2018-06-22T04:02:25.592Z,1006.71
2018-06-22T04:03:26.987Z,1006.74
2018-06-22T04:04:28.363Z,1006.66
2018-06-22T04:05:30.547Z,1006.72
2018-06-22T04:06:31.997Z,1006.69
2018-06-22T04:07:33.377Z,1006.65
2018-06-22T04:08:34.761Z,1006.68
2018-06-22T04:09:36.165Z,1006.68
2018-06-22T04:10:37.559Z,1006.65
2018-06-22T04:11:38.946Z,1006.66
2018-06-22T04:12:40.339Z,1006.66
2018-06-22T04:13:41.719Z,1006.68
2018-06-22T04:14:43.109Z,1006.63
2018-06-22T04:15:44.493Z,1006.69
2018-06-22T04:16:46.381Z,1006.67
2018-06-22T04:17:47.768Z,1006.66
2018-06-22T04:18:49.154Z,1006.66
2018-06-22T04:19:50.542Z,1006.72
2018-06-22T04:20:51.934Z,1006.71
2018-06-22T04:21:53.363Z,1006.72
2018-06-22T04:22:54.698Z,1006.69
2018-06-22T04:23:56.099Z,1006.66
2018-06-22T04:24:57.489Z,1006.66
2018-06-22T04:25:58.866Z,1006.66
2018-06-22T04:27:00.246Z,1006.62
2018-06-22T04:28:01.622Z,1006.64
2018-06-22T04:29:03.005Z,1006.64
2018-06-22T04:30:04.384Z,1006.61
2018-06-22T04:31:06.537Z,1006.66
2018-06-22T04:32:07.929Z,1006.62
2018-06-22T04:33:09.325Z,1006.67
2018-06-22T04:34:10.709Z,1006.60
2018-06-22T04:35:12.099Z,1006.64
2018-06-22T04:36:14.459Z,1006.65
2018-06-22T04:37:15.847Z,1006.72
2018-06-22T04:38:17.239Z,1006.68
2018-06-22T04:39:18.626Z,1006.66
2018-06-22T04:40:20.010Z,1006.73
2018-06-22T04:41:21.406Z,1006.67
2018-06-22T04:42:22.793Z,1006.69
2018-06-22T04:43:24.184Z,1006.67
2018-06-22T04:44:25.566Z,1006.66
2018-06-22T04:45:26.958Z,1006.66
2018-06-22T04:46:28.346Z,1006.69
2018-06-22T04:47:29.730Z,1006.72
2018-06-22T04:48:31.118Z,1006.69
2018-06-22T04:49:32.501Z,1006.69
2018-06-22T04:50:33.880Z,1006.67
2018-06-22T04:51:35.274Z,1006.73
2018-06-22T04:52:36.664Z,1006.72
2018-06-22T04:53:38.051Z,1006.72
2018-06-22T04:54:39.437Z,1006.71
2018-06-22T04:55:40.833Z,1006.75
2018-06-22T04:56:42.229Z,1006.71
2018-06-22T04:57:43.615Z,1006.71
2018-06-22T04:58:45.004Z,1006.69
2018-06-22T04:59:46.391Z,1006.74
2018-06-22T05:00:47.767Z,1006.73
2018-06-22T05:01:49.155Z,1006.76
2018-06-22T05:02:50.537Z,1006.78
2018-06-22T05:03:51.922Z,1006.83
2018-06-22T05:04:53.322Z,1006.81
2018-06-22T05:05:54.692Z,1006.84
2018-06-22T05:06:56.076Z,1006.88
2018-06-22T05:07:57.483Z,1006.81
2018-06-22T05:08:58.851Z,1006.86
2018-06-22T05:10:00.233Z,1006.80
2018-06-22T05:11:01.614Z,1006.80
2018-06-22T05:12:03.008Z,1006.82
2018-06-22T05:13:04.396Z,1006.73
2018-06-22T05:14:05.772Z,1006.77
2018-06-22T05:15:07.159Z,1006.76
2018-06-22T05:16:08.560Z,1006.79
2018-06-22T05:17:09.949Z,1006.80
2018-06-22T05:18:11.341Z,1006.80
2018-06-22T05:19:12.721Z,1006.84
2018-06-22T05:20:14.109Z,1006.83
2018-06-22T05:21:15.497Z,1006.87
2018-06-22T05:22:16.895Z,1006.85
2018-06-22T05:23:18.275Z,1006.84
2018-06-22T05:24:19.653Z,1006.86
2018-06-22T05:25:21.051Z,1006.88
2018-06-22T05:26:22.431Z,1006.85
2018-06-22T05:27:23.811Z,1006.89
2018-06-22T05:28:25.205Z,1006.88
2018-06-22T05:29:26.597Z,1006.86
2018-06-22T05:30:27.986Z,1006.90
2018-06-22T05:31:29.382Z,1006.93
2018-06-22T05:32:30.764Z,1006.89
2018-06-22T05:33:32.167Z,1006.86
2018-06-22T05:34:33.549Z,1006.88
2018-06-22T05:35:34.931Z,1006.88
2018-06-22T05:36:36.333Z,1006.85
2018-06-22T05:37:37.708Z,1006.85
2018-06-22T05:38:39.106Z,1006.90
2018-06-22T05:39:40.487Z,1006.88
2018-06-22T05:40:41.868Z,1006.88
2018-06-22T05:41:43.252Z,1006.90
2018-06-22T05:42:44.644Z,1006.89
2018-06-22T05:43:46.040Z,1006.94
2018-06-22T05:44:47.422Z,1006.94
2018-06-22T05:45:48.806Z,1006.95
2018-06-22T05:46:50.201Z,1006.91
2018-06-22T05:47:51.587Z,1006.94
2018-06-22T05:48:52.964Z,1006.97
2018-06-22T05:49:54.362Z,1006.91
2018-06-22T05:50:55.768Z,1006.87
2018-06-22T05:51:57.120Z,1006.90
2018-06-22T05:52:58.500Z,1006.88
2018-06-22T05:53:59.890Z,1006.92
2018-06-22T05:55:01.276Z,1006.90
2018-06-22T05:56:02.668Z,1006.93
2018-06-22T05:57:04.073Z,1007.04
2018-06-22T05:58:05.459Z,1006.97
2018-06-22T05:59:06.844Z,1006.94
2018-06-22T06:00:08.237Z,1006.96
2018-06-22T06:01:09.633Z,1006.94
2018-06-22T06:02:11.019Z,1006.91
2018-06-22T06:03:12.406Z,1006.89
2018-06-22T06:04:13.864Z,1006.97
2018-06-22T06:05:15.259Z,1007.02
2018-06-22T06:06:16.667Z,1007.14
2018-06-22T06:07:18.060Z,1007.05
2018-06-22T06:08:19.452Z,1007.07
2018-06-22T06:09:20.841Z,1007.07
2018-06-22T06:10:22.238Z,1007.00
2018-06-22T06:11:23.620Z,1007.13
2018-06-22T06:12:25.019Z,1007.09
2018-06-22T06:13:26.474Z,1007.16
2018-06-22T06:14:27.889Z,1007.11
2018-06-22T06:15:29.260Z,1007.08
2018-06-22T06:16:30.650Z,1007.05
2018-06-22T06:17:32.811Z,1007.06
2018-06-22T06:18:34.210Z,1007.06
2018-06-22T06:19:35.596Z,1007.05
2018-06-22T06:20:36.984Z,1007.04
2018-06-22T06:21:38.377Z,1007.08
2018-06-22T06:22:39.759Z,1007.08
2018-06-22T06:23:41.157Z,1007.10
2018-06-22T06:24:42.545Z,1007.10
2018-06-22T06:25:43.949Z,1007.33
2018-06-22T06:26:45.325Z,1007.12
2018-06-22T06:27:48.253Z,1007.18
2018-06-22T06:28:49.643Z,1007.20
2018-06-22T06:29:51.047Z,1007.20
2018-06-22T06:30:52.434Z,1007.21
2018-06-22T06:31:53.819Z,1007.20
2018-06-22T06:32:55.207Z,1007.17
2018-06-22T06:33:56.601Z,1007.20
2018-06-22T06:34:58.008Z,1007.18
2018-06-22T06:35:59.390Z,1007.23
2018-06-22T06:37:00.786Z,1007.23
2018-06-22T06:38:02.188Z,1007.24
2018-06-22T06:39:03.574Z,1007.22
2018-06-22T06:40:04.960Z,1007.27
2018-06-22T06:41:06.345Z,1007.27
2018-06-22T06:42:07.728Z,1007.25
2018-06-22T06:43:09.127Z,1007.26
2018-06-22T06:44:10.506Z,1007.23
2018-06-22T06:45:11.901Z,1007.23
2018-06-22T06:46:13.286Z,1007.26
2018-06-22T06:47:14.677Z,1007.26
2018-06-22T06:48:16.049Z,1007.24
2018-06-22T06:49:17.435Z,1007.29
2018-06-22T06:50:18.829Z,1007.28
2018-06-22T06:51:20.214Z,1007.25
2018-06-22T06:52:21.611Z,1007.27
2018-06-22T06:53:22.992Z,1007.24
2018-06-22T06:54:24.384Z,1007.25
2018-06-22T06:55:25.783Z,1007.26
2018-06-22T06:56:27.170Z,1007.23
2018-06-22T06:57:28.559Z,1007.27
2018-06-22T06:58:29.942Z,1007.26
2018-06-22T06:59:31.345Z,1007.26
2018-06-22T07:00:32.729Z,1007.31
2018-06-22T07:01:34.120Z,1007.28
2018-06-22T07:02:35.526Z,1007.27
2018-06-22T07:03:36.910Z,1007.26
2018-06-22T07:04:38.297Z,1007.26
2018-06-22T07:05:39.690Z,1007.26
2018-06-22T07:06:41.085Z,1007.32
2018-06-22T07:07:42.471Z,1007.30
2018-06-22T07:08:43.861Z,1007.29
2018-06-22T07:09:45.243Z,1007.30
2018-06-22T07:10:46.637Z,1007.32
2018-06-22T07:11:48.017Z,1007.34
2018-06-22T07:12:49.407Z,1007.35
2018-06-22T07:13:50.799Z,1007.41
2018-06-22T07:14:52.175Z,1007.38
2018-06-22T07:15:53.565Z,1007.35
2018-06-22T07:16:54.957Z,1007.38
2018-06-22T07:17:56.347Z,1007.40
2018-06-22T07:18:57.743Z,1007.41
2018-06-22T07:19:59.130Z,1007.44
2018-06-22T07:21:00.517Z,1007.43
2018-06-22T07:22:01.903Z,1007.48
2018-06-22T07:23:03.298Z,1007.42
2018-06-22T07:24:04.684Z,1007.45
2018-06-22T07:25:06.071Z,1007.44
2018-06-22T07:26:07.464Z,1007.44
2018-06-22T07:27:08.852Z,1007.44
2018-06-22T07:28:10.240Z,1007.44
2018-06-22T07:29:11.632Z,1007.41
2018-06-22T07:30:13.014Z,1007.36
2018-06-22T07:31:14.414Z,1007.39
2018-06-22T07:32:15.804Z,1007.47
2018-06-22T07:33:17.200Z,1007.47
2018-06-22T07:34:18.588Z,1007.51
2018-06-22T07:35:19.972Z,1007.56
2018-06-22T07:36:21.370Z,1007.64
2018-06-22T07:37:22.763Z,1007.54
2018-06-22T07:38:24.148Z,1007.52
2018-06-22T07:39:25.538Z,1007.59
2018-06-22T07:40:26.934Z,1007.60
2018-06-22T07:41:28.321Z,1007.69
2018-06-22T07:42:29.711Z,1007.68
2018-06-22T07:43:31.108Z,1007.63
2018-06-22T07:44:32.501Z,1007.60
2018-06-22T07:45:33.895Z,1007.63
2018-06-22T07:46:35.283Z,1007.60
2018-06-22T07:47:36.676Z,1007.60
2018-06-22T07:48:38.066Z,1007.61
2018-06-22T07:49:39.452Z,1007.65
2018-06-22T07:50:40.860Z,1007.68
2018-06-22T07:51:42.256Z,1007.69
2018-06-22T07:52:43.649Z,1007.68
2018-06-22T07:53:45.050Z,1007.67
2018-06-22T07:54:46.454Z,1007.66
2018-06-22T07:55:47.841Z,1007.67
2018-06-22T07:56:49.236Z,1007.69
2018-06-22T07:57:50.632Z,1007.70
2018-06-22T07:58:52.014Z,1007.70
2018-06-22T07:59:53.404Z,1007.71
2018-06-22T08:00:54.794Z,1007.77
2018-06-22T08:01:56.179Z,1007.74
2018-06-22T08:02:57.565Z,1007.76
2018-06-22T08:03:58.962Z,1007.69
2018-06-22T08:05:00.348Z,1007.71
2018-06-22T08:06:01.740Z,1007.82
2018-06-22T08:07:03.125Z,1007.78
2018-06-22T08:08:04.511Z,1007.84
2018-06-22T08:09:05.906Z,1007.81
2018-06-22T08:10:07.297Z,1007.80
2018-06-22T08:11:08.689Z,1007.84
2018-06-22T08:12:10.077Z,1007.82
2018-06-22T08:13:11.474Z,1007.89
2018-06-22T08:14:12.867Z,1007.90
2018-06-22T08:15:14.267Z,1007.88
2018-06-22T08:16:15.713Z,1007.92
2018-06-22T08:17:17.114Z,1007.97
2018-06-22T08:18:19.270Z,1007.94
2018-06-22T08:19:20.658Z,1008.02
2018-06-22T08:20:22.059Z,1008.09
2018-06-22T08:21:23.456Z,1008.04
2018-06-22T08:22:24.852Z,1008.08
2018-06-22T08:23:26.255Z,1008.11
2018-06-22T08:24:27.634Z,1008.11
2018-06-22T08:25:29.024Z,1008.15
2018-06-22T08:26:30.416Z,1008.11
2018-06-22T08:27:31.806Z,1008.16
2018-06-22T08:28:33.218Z,1008.13
2018-06-22T08:29:34.608Z,1008.15
2018-06-22T08:30:36.006Z,1008.17
2018-06-22T08:31:37.412Z,1008.17
2018-06-22T08:32:38.785Z,1008.20
2018-06-22T08:33:40.186Z,1008.26
2018-06-22T08:34:41.583Z,1008.29
2018-06-22T08:35:42.999Z,1008.30
2018-06-22T08:36:44.391Z,1008.31
2018-06-22T08:37:45.802Z,1008.33
2018-06-22T08:38:47.178Z,1008.35
2018-06-22T08:39:48.570Z,1008.33
2018-06-22T08:40:49.953Z,1008.34
2018-06-22T08:41:51.555Z,1008.33
2018-06-22T08:42:52.756Z,1008.40
2018-06-22T08:43:54.145Z,1008.42
2018-06-22T08:44:55.523Z,1008.42
2018-06-22T08:45:56.926Z,1008.45
2018-06-22T08:46:58.309Z,1008.39
2018-06-22T08:47:59.704Z,1008.44
2018-06-22T08:49:01.182Z,1008.50
2018-06-22T08:50:02.452Z,1008.49
2018-06-22T08:51:03.847Z,1008.44
2018-06-22T08:52:05.243Z,1008.45
2018-06-22T08:53:06.632Z,1008.47
2018-06-22T08:54:08.035Z,1008.46
2018-06-22T08:55:09.424Z,1008.43
2018-06-22T08:56:10.809Z,1008.47
2018-06-22T08:57:12.200Z,1008.49
2018-06-22T08:58:13.588Z,1008.49
2018-06-22T08:59:14.982Z,1008.48
2018-06-22T09:00:16.369Z,1008.52
2018-06-22T09:01:17.794Z,1008.51
2018-06-22T09:02:19.179Z,1008.52
2018-06-22T09:03:20.563Z,1008.52
2018-06-22T09:04:21.974Z,1008.54
2018-06-22T09:05:23.399Z,1008.53
2018-06-22T09:06:24.779Z,1008.52
2018-06-22T09:07:26.410Z,1008.58
2018-06-22T09:08:27.793Z,1008.60
2018-06-22T09:09:29.194Z,1008.56
2018-06-22T09:10:30.578Z,1008.61
2018-06-22T09:11:31.972Z,1008.57
2018-06-22T09:12:33.411Z,1008.55
2018-06-22T09:13:34.760Z,1008.56
2018-06-22T09:14:36.232Z,1008.52
2018-06-22T09:15:37.493Z,1008.54
2018-06-22T09:16:38.877Z,1008.54
2018-06-22T09:17:40.274Z,1008.54
2018-06-22T09:18:41.663Z,1008.52
2018-06-22T09:19:43.094Z,1008.45
2018-06-22T09:20:44.449Z,1008.48
2018-06-22T09:21:45.852Z,1008.49
2018-06-22T09:22:47.239Z,1008.44
2018-06-22T09:23:48.632Z,1008.45
2018-06-22T09:24:50.880Z,1008.47
2018-06-22T09:25:52.288Z,1008.46
2018-06-22T09:26:53.694Z,1008.47
2018-06-22T09:27:55.089Z,1008.46
2018-06-22T09:28:56.495Z,1008.39
2018-06-22T09:29:57.866Z,1008.43
2018-06-22T09:30:59.257Z,1008.45
2018-06-22T09:32:00.651Z,1008.39
2018-06-22T09:33:02.057Z,1008.47
2018-06-22T09:34:03.448Z,1008.50
2018-06-22T09:35:04.847Z,1008.53
2018-06-22T09:36:06.235Z,1008.50
2018-06-22T09:37:07.625Z,1008.55
2018-06-22T09:38:09.023Z,1008.56
2018-06-22T09:39:10.412Z,1008.57
2018-06-22T09:40:11.790Z,1008.55
2018-06-22T09:41:13.195Z,1008.55
2018-06-22T09:42:14.605Z,1008.63
2018-06-22T09:43:15.983Z,1008.66
2018-06-22T09:44:17.400Z,1008.64
2018-06-22T09:45:18.774Z,1008.62
2018-06-22T09:46:20.177Z,1008.67
2018-06-22T09:47:21.570Z,1008.64
2018-06-22T09:48:22.975Z,1008.63
2018-06-22T09:49:24.349Z,1008.67
2018-06-22T09:50:25.820Z,1008.72
2018-06-22T09:51:27.224Z,1008.68
2018-06-22T09:52:28.612Z,1008.60
2018-06-22T09:53:29.996Z,1008.67
2018-06-22T09:54:31.397Z,1008.67
2018-06-22T09:55:32.804Z,1008.71
2018-06-22T09:56:34.182Z,1008.70
2018-06-22T09:57:35.584Z,1008.66
2018-06-22T09:58:36.978Z,1008.65
2018-06-22T09:59:38.373Z,1008.56
2018-06-22T10:00:39.770Z,1008.51
2018-06-22T10:01:41.167Z,1008.51
2018-06-22T10:02:42.549Z,1008.54
2018-06-22T10:03:43.948Z,1008.51
2018-06-22T10:04:45.430Z,1008.54
2018-06-22T10:05:46.738Z,1008.47
2018-06-22T10:06:48.585Z,1008.51
2018-06-22T10:07:49.991Z,1008.57
2018-06-22T10:08:51.385Z,1008.60
2018-06-22T10:09:52.789Z,1008.59
2018-06-22T10:10:54.171Z,1008.63
2018-06-22T10:11:55.751Z,1008.71
2018-06-22T10:12:57.164Z,1008.66
2018-06-22T10:13:58.565Z,1008.71
2018-06-22T10:14:59.971Z,1008.65
2018-06-22T10:16:01.374Z,1008.66
2018-06-22T10:17:02.780Z,1008.66
2018-06-22T10:18:04.180Z,1008.60
2018-06-22T10:19:05.577Z,1008.64
2018-06-22T10:20:06.996Z,1008.67
2018-06-22T10:21:08.393Z,1008.62
2018-06-22T10:22:09.790Z,1008.64
2018-06-22T10:23:11.680Z,1008.61
2018-06-22T10:24:13.070Z,1008.68
2018-06-22T10:25:14.474Z,1008.63
2018-06-22T10:26:15.863Z,1008.62
2018-06-22T10:27:17.260Z,1008.60
2018-06-22T10:28:18.646Z,1008.58
2018-06-22T10:29:20.048Z,1008.51
2018-06-22T10:30:21.434Z,1008.48
2018-06-22T10:31:22.921Z,1008.54
2018-06-22T10:32:24.315Z,1008.52
2018-06-22T10:33:25.714Z,1008.56
2018-06-22T10:34:27.121Z,1008.53
2018-06-22T10:35:28.507Z,1008.50
2018-06-22T10:36:29.913Z,1008.55
2018-06-22T10:37:31.305Z,1008.53
2018-06-22T10:38:32.709Z,1008.50
2018-06-22T10:39:34.094Z,1008.50
2018-06-22T10:40:35.499Z,1008.48
2018-06-22T10:41:36.888Z,1008.46
2018-06-22T10:42:38.294Z,1008.52
2018-06-22T10:43:39.689Z,1008.47
2018-06-22T10:44:41.090Z,1008.53
2018-06-22T10:45:42.504Z,1008.55
2018-06-22T10:46:43.903Z,1008.59
2018-06-22T10:47:45.310Z,1008.61
2018-06-22T10:48:46.708Z,1008.52
2018-06-22T10:49:48.104Z,1008.53
2018-06-22T10:50:49.502Z,1008.58
2018-06-22T10:51:50.906Z,1008.62
2018-06-22T10:52:52.306Z,1008.60
2018-06-22T10:53:53.705Z,1008.57
2018-06-22T10:54:55.113Z,1008.62
2018-06-22T10:55:56.513Z,1008.65
2018-06-22T10:56:57.896Z,1008.67
2018-06-22T10:57:59.275Z,1008.63
2018-06-22T10:59:00.670Z,1008.65
2018-06-22T11:00:02.105Z,1008.62
2018-06-22T11:01:03.475Z,1008.66
2018-06-22T11:02:04.859Z,1008.66
2018-06-22T11:03:06.259Z,1008.64
2018-06-22T11:04:07.649Z,1008.66
2018-06-22T11:05:09.053Z,1008.63
2018-06-22T11:06:10.453Z,1008.66
2018-06-22T11:07:11.849Z,1008.69
2018-06-22T11:08:13.239Z,1008.68
2018-06-22T11:09:14.624Z,1008.68
2018-06-22T11:10:16.028Z,1008.71
2018-06-22T11:11:17.413Z,1008.76
2018-06-22T11:12:18.808Z,1008.71
2018-06-22T11:13:20.208Z,1008.71
2018-06-22T11:14:21.609Z,1008.76
2018-06-22T11:15:23.000Z,1008.70
2018-06-22T11:16:24.400Z,1008.69
2018-06-22T11:17:25.778Z,1008.68
2018-06-22T11:18:27.269Z,1008.69
2018-06-22T11:19:28.573Z,1008.68
2018-06-22T11:20:29.962Z,1008.66
2018-06-22T11:21:31.363Z,1008.66
2018-06-22T11:22:32.748Z,1008.61
2018-06-22T11:23:34.144Z,1008.68
2018-06-22T11:24:35.562Z,1008.66
2018-06-22T11:25:36.947Z,1008.65
2018-06-22T11:26:38.343Z,1008.60
2018-06-22T11:27:39.734Z,1008.53
2018-06-22T11:28:41.133Z,1008.54
2018-06-22T11:29:42.527Z,1008.52
2018-06-22T11:30:43.959Z,1008.63
2018-06-22T11:31:45.309Z,1008.62
2018-06-22T11:32:46.709Z,1008.56
2018-06-22T11:33:48.113Z,1008.61
2018-06-22T11:34:49.501Z,1008.57
2018-06-22T11:35:50.930Z,1008.56
2018-06-22T11:36:52.303Z,1008.65
2018-06-22T11:37:53.697Z,1008.68
2018-06-22T11:38:55.099Z,1008.68
2018-06-22T11:39:56.486Z,1008.67
2018-06-22T11:40:57.876Z,1008.73
2018-06-22T11:42:00.039Z,1008.74
2018-06-22T11:43:01.430Z,1008.70
2018-06-22T11:44:02.828Z,1008.76
2018-06-22T11:45:04.218Z,1008.78
2018-06-22T11:46:05.614Z,1008.79
2018-06-22T11:47:07.018Z,1008.84
2018-06-22T11:48:08.401Z,1008.81
2018-06-22T11:49:09.799Z,1008.81
2018-06-22T11:50:11.198Z,1008.82
2018-06-22T11:51:12.649Z,1008.86
2018-06-22T11:52:13.993Z,1008.89
2018-06-22T11:53:15.381Z,1008.84
2018-06-22T11:54:16.785Z,1008.83
2018-06-22T11:55:18.179Z,1008.85
2018-06-22T11:56:19.579Z,1008.87
2018-06-22T11:57:20.973Z,1008.83
2018-06-22T11:58:22.359Z,1008.86
2018-06-22T11:59:23.747Z,1008.86
2018-06-22T12:00:25.153Z,1008.85
2018-06-22T12:01:26.548Z,1008.89
2018-06-22T12:02:27.949Z,1008.83
2018-06-22T12:03:29.345Z,1008.87
2018-06-22T12:04:30.743Z,1008.86
2018-06-22T12:05:32.130Z,1008.85
2018-06-22T12:06:33.532Z,1008.85
2018-06-22T12:07:34.920Z,1008.86
2018-06-22T12:08:36.315Z,1008.86
2018-06-22T12:09:37.712Z,1008.91
2018-06-22T12:10:39.953Z,1008.93
2018-06-22T12:11:41.348Z,1008.94
2018-06-22T12:12:42.747Z,1008.91
2018-06-22T12:13:44.147Z,1008.95
2018-06-22T12:14:45.544Z,1009.04
2018-06-22T12:15:46.934Z,1008.99
2018-06-22T12:16:48.325Z,1008.89
2018-06-22T12:17:49.712Z,1009.01
2018-06-22T12:18:51.109Z,1008.98
2018-06-22T12:19:52.508Z,1008.94
2018-06-22T12:20:53.902Z,1009.01
2018-06-22T12:21:55.302Z,1008.98
2018-06-22T12:22:56.693Z,1009.04